HRGA4: Little River, Horatio, AR

Data processed at Thu May 23 2019 23:50


All information presented herein is the property of the government of the United States of America and may be revised or deleted at any time without prior notice.
Dissemination of this information without the expressed written consent of the Public Affairs Office, Tulsa District U.S. Army Corps of Engineers is strictly prohibited.
These data are gathered electronically and, as presented, have not undergone any form of quality control. These data are not guaranteed to be valid or correct.
Go to home page.
Go to station list.
Go to home page.

Upstream stations:

Downstream station:
Previous Day
Next Day
Current Day
    
SHEF ID:       HRGA4     Little River near Horatio, AR
STATION TYPE:  
Regulating: Stage =    21.50, Flow =    16267

               PRECIP     STAGE  RIV-FLOW  BAT-LOAD
                   in        ft       cfs      volt
              Ccp-Rev   Ccp-Rev   Ccp-Rev   Ccp-Rev
(US/Central)
05/23 00:00      0.00     14.80      8521     12.81
05/23 01:00      0.00     14.89      8617     12.81
05/23 02:00      0.00     15.02      8756     12.81
05/23 03:00      0.00     15.16      8906     12.81
05/23 04:00      0.00     15.30      9057     12.73
05/23 05:00      0.00     15.43      9197     12.73
05/23 06:00      0.00     15.52      9295     12.73
05/23 07:00      0.00     15.59      9371     12.73
05/23 08:00      0.00     15.63      9415     12.73
05/23 09:00      0.00     15.63      9415     12.89
05/23 10:00      0.00     15.64      9426     13.05
05/23 11:00      0.00     15.63      9415     13.29
05/23 12:00      0.00     15.57      9350     13.68
05/23 13:00      0.00     15.48      9252     13.53
05/23 14:00      0.00     15.44      9208     13.44
05/23 15:00      0.00     15.35      9111     13.21
05/23 16:00      0.00     15.26      9014     13.21
05/23 17:00      0.00     15.16      8906     13.21
05/23 18:00      0.00     15.06      8798     13.21
05/23 19:00      0.00     14.96      8691     13.13
05/23 20:00      0.00     14.87      8595     13.13
05/23 21:00      0.00     14.78      8499     12.89
05/23 22:00      0.00     14.74      8457     12.89
05/23 23:00      0.00     14.72      8436     12.89